San Luis Rey, California
Current Conditions -  °F | °C
As of 12:52 AM on Thursday 18 Dec 2014 (Local Time) from KOKB Reporting Station
Light Rain Light Rain  
Wind Chill: 49°   Ceiling: 6000
Heat Index: 49°   Visibility: 10mi
Dew Point: 46°   Wind: 0mph
Humidity: 90%   Direction: NA
Pressure: 30.11"   Gusts: NA
Location:  33.23°N, 117.33°W
Report Text: KOKB 180852Z AUTO 00000KT 10SM -RA FEW040 BKN060 OVC070 09/08 A3011 RMK AO2 RAB51 SLP196 P0000 60000 T00940078 58004
Loading
Personal Weather Stations






























Interactive Weather Map New forecast layout! Learn more

10-Day Weather Forecast

Advertisements
Track Severe Weather on mobile